Time;durP1;ratioP1;P1;durP2;ratioP2;P2;SDS_P1;SDS_P2;PMS_P1;PMS_P2;Temp;Humidity;BMP_temperature;BMP_pressure;BME280_temperature;BME280_humidity;BME280_pressure;Samples;Min_cycle;Max_cycle;Signal;HPM_P1;HPM_P2
2024/01/19 00:00:15;;;;;;;27.73;17.07;;;;;;;;;;4411752;32;319114;-80
2024/01/19 00:02:43;;;;;;;34.37;16.17;;;;;;;;;;4393275;32;318390;-80
2024/01/19 00:05:10;;;;;;;26.77;15.13;;;;;;;;;;4413123;32;318291;-81
2024/01/19 00:07:37;;;;;;;35.03;20.37;;;;;;;;;;4413006;32;318972;-81
2024/01/19 00:10:06;;;;;;;43.93;21.20;;;;;;;;;;4393100;32;319036;-80
2024/01/19 00:12:36;;;;;;;33.07;18.17;;;;;;;;;;4405912;32;318938;-80
2024/01/19 00:15:07;;;;;;;26.17;15.63;;;;;;;;;;4401928;32;319044;-80
2024/01/19 00:17:36;;;;;;;25.57;13.70;;;;;;;;;;4394743;32;318951;-80
2024/01/19 00:20:09;;;;;;;24.50;12.43;;;;;;;;;;4378384;32;319046;-81
2024/01/19 00:22:37;;;;;;;22.37;11.13;;;;;;;;;;4404193;32;318355;-81
2024/01/19 00:25:07;;;;;;;31.97;17.93;;;;;;;;;;4400255;32;319243;-81
2024/01/19 00:27:34;;;;;;;55.33;27.70;;;;;;;;;;4409374;32;319220;-81
2024/01/19 00:30:02;;;;;;;51.57;23.97;;;;;;;;;;4393698;32;319640;-81
2024/01/19 00:32:31;;;;;;;55.60;26.67;;;;;;;;;;4409046;32;320044;-81
2024/01/19 00:34:58;;;;;;;58.67;24.27;;;;;;;;;;4400367;32;318549;-81
2024/01/19 00:37:30;;;;;;;50.53;24.93;;;;;;;;;;4409523;32;318572;-81
2024/01/19 00:40:01;;;;;;;61.63;27.97;;;;;;;;;;4393811;32;318871;-81
2024/01/19 00:42:51;;;;;;;79.63;43.33;;;;;;;;;;4408701;32;318772;-80
2024/01/19 00:45:18;;;;;;;65.97;34.80;;;;;;;;;;4396850;32;419806;-81
2024/01/19 00:47:48;;;;;;;58.90;30.93;;;;;;;;;;4397019;32;319455;-81
2024/01/19 00:50:15;;;;;;;56.67;28.57;;;;;;;;;;4404469;32;319556;-79
2024/01/19 00:52:50;;;;;;;46.07;26.17;;;;;;;;;;4397555;32;317781;-80
2024/01/19 00:55:19;;;;;;;45.77;25.33;;;;;;;;;;4408437;32;319032;-79
2024/01/19 00:57:47;;;;;;;48.50;23.60;;;;;;;;;;4394140;32;318859;-79
2024/01/19 01:00:14;;;;;;;36.63;20.63;;;;;;;;;;4406568;32;318715;-79
2024/01/19 01:02:41;;;;;;;39.40;21.87;;;;;;;;;;4398582;32;319233;-79
2024/01/19 01:05:11;;;;;;;46.23;25.77;;;;;;;;;;4409677;32;317422;-81
2024/01/19 01:07:44;;;;;;;38.57;23.93;;;;;;;;;;4401700;32;318725;-80
2024/01/19 01:10:13;;;;;;;52.10;27.30;;;;;;;;;;4396847;32;417200;-80
2024/01/19 01:12:41;;;;;;;39.50;21.10;;;;;;;;;;4396409;32;318875;-80
2024/01/19 01:15:08;;;;;;;28.80;18.00;;;;;;;;;;4374880;32;418563;-80
2024/01/19 01:17:36;;;;;;;24.17;13.43;;;;;;;;;;4403717;32;319117;-80
2024/01/19 01:20:09;;;;;;;27.43;14.43;;;;;;;;;;4378459;32;319226;-80
2024/01/19 01:22:46;;;;;;;29.83;17.20;;;;;;;;;;4405353;32;319449;-80
2024/01/19 01:25:17;;;;;;;31.03;18.77;;;;;;;;;;4397706;32;419914;-80
2024/01/19 01:27:44;;;;;;;34.80;19.57;;;;;;;;;;4384685;32;319297;-80
2024/01/19 01:30:12;;;;;;;27.77;16.47;;;;;;;;;;4409520;32;319309;-80
2024/01/19 01:32:42;;;;;;;25.90;14.67;;;;;;;;;;4411191;32;320214;-80
2024/01/19 01:35:12;;;;;;;27.17;14.63;;;;;;;;;;4371244;32;418101;-80
2024/01/19 01:37:39;;;;;;;25.50;15.10;;;;;;;;;;4396176;32;318693;-80
2024/01/19 01:40:16;;;;;;;28.00;14.60;;;;;;;;;;4365565;32;418323;-81
2024/01/19 01:42:47;;;;;;;23.73;15.07;;;;;;;;;;4389132;32;318818;-80
2024/01/19 01:45:14;;;;;;;27.73;15.10;;;;;;;;;;4398982;32;348546;-80
2024/01/19 01:47:41;;;;;;;42.77;22.07;;;;;;;;;;4400075;32;321760;-80
2024/01/19 01:50:12;;;;;;;28.23;15.83;;;;;;;;;;4394787;32;414668;-80
2024/01/19 01:52:38;;;;;;;18.80;11.10;;;;;;;;;;4411970;32;319233;-80
2024/01/19 01:55:08;;;;;;;26.20;14.83;;;;;;;;;;4393838;32;319453;-80
2024/01/19 01:57:38;;;;;;;27.03;13.83;;;;;;;;;;4404996;32;319814;-80
2024/01/19 02:00:08;;;;;;;25.83;15.40;;;;;;;;;;4394632;32;350062;-80
2024/01/19 02:02:35;;;;;;;26.30;16.30;;;;;;;;;;4411501;32;319095;-80
2024/01/19 02:05:05;;;;;;;26.47;13.40;;;;;;;;;;4399944;32;319329;-81
2024/01/19 02:07:33;;;;;;;29.47;14.87;;;;;;;;;;4403859;32;318585;-81
2024/01/19 02:10:03;;;;;;;25.75;15.68;;;;;;;;;;4392102;32;318881;-81
2024/01/19 02:12:39;;;;;;;27.33;16.63;;;;;;;;;;4410699;32;319157;-82
2024/01/19 02:15:21;;;;;;;27.27;15.67;;;;;;;;;;4376557;32;319593;-81
2024/01/19 02:17:52;;;;;;;28.77;17.07;;;;;;;;;;4377557;32;318592;-81
2024/01/19 02:20:21;;;;;;;29.93;17.80;;;;;;;;;;4398773;32;318522;-81
2024/01/19 02:22:50;;;;;;;31.13;16.77;;;;;;;;;;4390162;32;319396;-81
2024/01/19 02:25:24;;;;;;;29.10;15.13;;;;;;;;;;4401433;32;318377;-81
2024/01/19 02:27:53;;;;;;;33.17;19.23;;;;;;;;;;4388854;32;319134;-81
2024/01/19 02:30:22;;;;;;;31.20;19.53;;;;;;;;;;4400124;32;319281;-81
2024/01/19 02:32:49;;;;;;;38.27;23.50;;;;;;;;;;4400073;32;319495;-81
2024/01/19 02:35:16;;;;;;;55.67;38.10;;;;;;;;;;4410767;32;319290;-81
2024/01/19 02:37:46;;;;;;;63.50;45.37;;;;;;;;;;4400493;32;319232;-81
2024/01/19 02:40:14;;;;;;;68.73;46.93;;;;;;;;;;4413137;32;319274;-81
2024/01/19 02:42:43;;;;;;;58.00;42.17;;;;;;;;;;4393662;32;319639;-80
2024/01/19 02:45:13;;;;;;;43.03;27.80;;;;;;;;;;4396734;32;318571;-81
2024/01/19 02:47:40;;;;;;;31.77;22.47;;;;;;;;;;4396640;32;319114;-81
2024/01/19 02:50:08;;;;;;;35.93;19.57;;;;;;;;;;4377969;32;418912;-81
2024/01/19 02:55:18;;;;;;;22.43;12.67;;;;;;;;;;4385941;32;391074;-80
2024/01/19 02:57:46;;;;;;;19.03;11.20;;;;;;;;;;4385274;32;318926;-79
2024/01/19 03:00:16;;;;;;;14.80;11.17;;;;;;;;;;4409539;32;317682;-79
2024/01/19 03:02:47;;;;;;;10.87;9.57;;;;;;;;;;4403307;32;318780;-82
2024/01/19 03:05:15;;;;;;;16.47;10.27;;;;;;;;;;4402080;32;316715;-80
2024/01/19 03:07:43;;;;;;;17.97;10.33;;;;;;;;;;4401213;32;318851;-80
2024/01/19 03:10:13;;;;;;;17.47;11.33;;;;;;;;;;4391187;32;419419;-80
2024/01/19 03:12:44;;;;;;;14.93;10.63;;;;;;;;;;4412056;32;318666;-80
2024/01/19 03:15:15;;;;;;;19.97;12.73;;;;;;;;;;4401594;32;419785;-80
2024/01/19 03:17:44;;;;;;;20.43;11.67;;;;;;;;;;4388617;32;318651;-81
2024/01/19 03:20:20;;;;;;;23.90;11.03;;;;;;;;;;4408901;32;319024;-80
2024/01/19 03:22:50;;;;;;;23.37;14.47;;;;;;;;;;4402332;32;319455;-79
2024/01/19 03:25:17;;;;;;;20.93;13.90;;;;;;;;;;4413217;32;318307;-79
2024/01/19 03:27:43;;;;;;;19.40;12.73;;;;;;;;;;4396091;32;318598;-81
2024/01/19 03:30:16;;;;;;;22.33;14.10;;;;;;;;;;4406162;32;318543;-79
2024/01/19 03:32:44;;;;;;;16.47;11.90;;;;;;;;;;4402030;32;369146;-80
2024/01/19 03:35:13;;;;;;;22.73;13.73;;;;;;;;;;4413783;32;319596;-80
2024/01/19 03:37:44;;;;;;;41.70;28.83;;;;;;;;;;4404950;32;319489;-79
2024/01/19 03:40:13;;;;;;;40.07;26.30;;;;;;;;;;4378814;32;418617;-79
2024/01/19 03:42:45;;;;;;;46.07;27.00;;;;;;;;;;4413173;32;331658;-80
2024/01/19 03:48:02;;;;;;;26.47;18.83;;;;;;;;;;4391334;32;357142;-81
2024/01/19 03:50:29;;;;;;;41.63;25.17;;;;;;;;;;4408570;32;319254;-79
2024/01/19 03:52:56;;;;;;;39.73;27.30;;;;;;;;;;4387560;32;318657;-79
2024/01/19 03:55:24;;;;;;;39.90;25.83;;;;;;;;;;4398090;32;320224;-79
2024/01/19 03:57:51;;;;;;;39.07;24.80;;;;;;;;;;4374850;32;319330;-79
2024/01/19 04:00:23;;;;;;;35.23;20.60;;;;;;;;;;4390101;32;338075;-80
2024/01/19 04:02:54;;;;;;;28.17;18.30;;;;;;;;;;4391937;32;319371;-79
2024/01/19 04:05:22;;;;;;;31.60;19.00;;;;;;;;;;4402606;32;318974;-81
2024/01/19 04:07:54;;;;;;;31.97;20.60;;;;;;;;;;4377992;32;317667;-80
2024/01/19 04:10:21;;;;;;;32.03;21.70;;;;;;;;;;4390691;32;355947;-79
2024/01/19 04:12:53;;;;;;;35.40;23.37;;;;;;;;;;4381338;32;319768;-80
2024/01/19 04:15:21;;;;;;;34.13;20.77;;;;;;;;;;4394466;32;319402;-80
2024/01/19 04:17:48;;;;;;;36.53;21.57;;;;;;;;;;4362747;32;319414;-79
2024/01/19 04:20:15;;;;;;;46.23;25.87;;;;;;;;;;4398001;32;319844;-81
2024/01/19 04:22:43;;;;;;;36.47;23.60;;;;;;;;;;4392995;32;319448;-79
2024/01/19 04:25:12;;;;;;;32.73;23.00;;;;;;;;;;4411733;32;318742;-81
2024/01/19 04:27:43;;;;;;;39.00;23.70;;;;;;;;;;4411591;32;318211;-80
2024/01/19 04:30:12;;;;;;;33.37;20.67;;;;;;;;;;4375834;32;418610;-79
2024/01/19 04:32:44;;;;;;;32.07;21.93;;;;;;;;;;4384398;32;317862;-79
2024/01/19 04:35:11;;;;;;;34.57;22.67;;;;;;;;;;4396147;32;418106;-79
2024/01/19 04:37:44;;;;;;;32.73;22.47;;;;;;;;;;4406087;32;319745;-79
2024/01/19 04:40:12;;;;;;;42.80;25.50;;;;;;;;;;4390562;32;419793;-79
2024/01/19 04:42:40;;;;;;;67.20;35.17;;;;;;;;;;4410410;32;319556;-80
2024/01/19 04:45:09;;;;;;;90.33;44.50;;;;;;;;;;4379135;32;419724;-79
2024/01/19 04:47:39;;;;;;;98.00;44.17;;;;;;;;;;4391909;32;318342;-80
2024/01/19 04:50:09;;;;;;;94.73;40.60;;;;;;;;;;4386643;32;318262;-80
2024/01/19 04:52:39;;;;;;;93.33;41.50;;;;;;;;;;4410936;32;318339;-80
2024/01/19 04:55:07;;;;;;;95.60;40.23;;;;;;;;;;4399304;32;317764;-80
2024/01/19 04:57:35;;;;;;;93.73;42.03;;;;;;;;;;4401651;32;318351;-80
2024/01/19 05:00:05;;;;;;;85.23;41.77;;;;;;;;;;4396000;32;353294;-80
2024/01/19 05:02:43;;;;;;;122.67;44.47;;;;;;;;;;4403718;32;318132;-80
2024/01/19 05:05:11;;;;;;;115.60;50.20;;;;;;;;;;4364359;32;418916;-80
2024/01/19 05:07:45;;;;;;;119.87;56.87;;;;;;;;;;4409953;32;318993;-81
2024/01/19 05:10:12;;;;;;;148.60;68.27;;;;;;;;;;4395905;32;419882;-80
2024/01/19 05:12:50;;;;;;;118.27;55.33;;;;;;;;;;4411463;32;318642;-80
2024/01/19 05:15:28;;;;;;;123.00;60.00;;;;;;;;;;4378110;32;418640;-80
2024/01/19 05:17:56;;;;;;;113.03;56.20;;;;;;;;;;4340006;32;319287;-80
2024/01/19 05:20:26;;;;;;;122.97;56.13;;;;;;;;;;4407376;32;318803;-80
2024/01/19 05:23:03;;;;;;;124.93;55.57;;;;;;;;;;4399442;32;319556;-80
2024/01/19 05:25:32;;;;;;;123.93;56.00;;;;;;;;;;4409096;32;318974;-80
2024/01/19 05:27:59;;;;;;;115.83;51.50;;;;;;;;;;4390561;32;318437;-81
2024/01/19 05:30:27;;;;;;;124.63;47.30;;;;;;;;;;4413453;32;318581;-80
2024/01/19 05:32:54;;;;;;;136.70;52.17;;;;;;;;;;4393481;32;359269;-80
2024/01/19 05:35:21;;;;;;;113.70;56.73;;;;;;;;;;4411656;32;318554;-80
2024/01/19 05:37:49;;;;;;;116.47;52.57;;;;;;;;;;4396527;32;318650;-80
2024/01/19 05:40:17;;;;;;;146.20;61.13;;;;;;;;;;4409044;32;319524;-79
2024/01/19 05:42:44;;;;;;;151.70;60.50;;;;;;;;;;4401758;32;319259;-80
2024/01/19 05:45:11;;;;;;;148.30;59.13;;;;;;;;;;4411483;32;319167;-79
2024/01/19 05:47:41;;;;;;;142.80;59.07;;;;;;;;;;4412677;32;318596;-81
2024/01/19 05:50:08;;;;;;;137.53;57.33;;;;;;;;;;4393802;32;416702;-81
2024/01/19 05:52:36;;;;;;;157.17;56.47;;;;;;;;;;4415702;32;319137;-81
2024/01/19 05:55:11;;;;;;;133.57;51.23;;;;;;;;;;4395629;32;318631;-81
2024/01/19 05:57:42;;;;;;;81.23;42.70;;;;;;;;;;4377104;32;318501;-80
2024/01/19 06:00:18;;;;;;;75.73;40.33;;;;;;;;;;4383686;32;417630;-81
2024/01/19 06:02:57;;;;;;;79.30;42.07;;;;;;;;;;4377938;32;351725;-80
2024/01/19 06:05:26;;;;;;;80.03;35.13;;;;;;;;;;4402372;32;318059;-80
2024/01/19 06:07:59;;;;;;;73.00;36.93;;;;;;;;;;4382957;32;318088;-82
2024/01/19 06:10:33;;;;;;;73.13;36.90;;;;;;;;;;4402325;32;316794;-82
2024/01/19 06:15:36;;;;;;;83.43;36.47;;;;;;;;;;4351755;32;317842;-81
2024/01/19 06:18:06;;;;;;;84.60;39.87;;;;;;;;;;4318474;32;340907;-80
2024/01/19 06:20:40;;;;;;;91.83;42.27;;;;;;;;;;4346906;32;318792;-81
2024/01/19 06:23:07;;;;;;;78.47;43.13;;;;;;;;;;4338061;32;417460;-81
2024/01/19 06:25:39;;;;;;;68.87;36.00;;;;;;;;;;4353774;32;354257;-81
2024/01/19 06:28:07;;;;;;;54.00;31.87;;;;;;;;;;4342012;32;418970;-82
2024/01/19 06:30:36;;;;;;;50.07;31.57;;;;;;;;;;4350586;32;318282;-79
2024/01/19 06:33:05;;;;;;;55.23;29.90;;;;;;;;;;4340535;32;318597;-81
2024/01/19 06:35:36;;;;;;;61.27;33.50;;;;;;;;;;4356372;32;317942;-81
2024/01/19 06:38:04;;;;;;;55.53;33.90;;;;;;;;;;4349542;32;318205;-81
2024/01/19 06:40:32;;;;;;;58.47;36.53;;;;;;;;;;4364511;32;318091;-80
2024/01/19 06:43:02;;;;;;;56.43;38.20;;;;;;;;;;4349655;32;318199;-80
2024/01/19 06:45:29;;;;;;;76.83;47.13;;;;;;;;;;4352616;32;317261;-81
2024/01/19 06:47:57;;;;;;;75.80;50.63;;;;;;;;;;4335346;32;317748;-80
2024/01/19 06:50:24;;;;;;;83.97;54.50;;;;;;;;;;4352288;32;318364;-80
2024/01/19 06:52:52;;;;;;;82.10;53.80;;;;;;;;;;4341525;32;318359;-80
2024/01/19 06:55:19;;;;;;;76.67;49.43;;;;;;;;;;4351562;32;318270;-81
2024/01/19 06:57:46;;;;;;;96.07;59.23;;;;;;;;;;4334735;32;318003;-80
2024/01/19 07:00:17;;;;;;;104.37;65.47;;;;;;;;;;4355426;32;317755;-81
2024/01/19 07:02:46;;;;;;;96.20;61.67;;;;;;;;;;4386564;32;319229;-79
2024/01/19 07:05:13;;;;;;;95.13;57.07;;;;;;;;;;4412462;32;317570;-80
2024/01/19 07:07:46;;;;;;;89.30;57.33;;;;;;;;;;4413950;32;317585;-81
2024/01/19 07:10:16;;;;;;;93.57;59.20;;;;;;;;;;4397296;32;417591;-80
2024/01/19 07:12:42;;;;;;;71.27;48.43;;;;;;;;;;4390541;32;317849;-80
2024/01/19 07:15:09;;;;;;;117.37;65.30;;;;;;;;;;4411025;32;317652;-82
2024/01/19 07:17:39;;;;;;;128.93;70.63;;;;;;;;;;4404754;32;320613;-80
2024/01/19 07:20:08;;;;;;;115.37;60.27;;;;;;;;;;4394322;32;414899;-81
2024/01/19 07:22:37;;;;;;;120.40;61.10;;;;;;;;;;4413010;32;318905;-81
2024/01/19 07:25:06;;;;;;;129.10;63.33;;;;;;;;;;4409542;32;318730;-80
2024/01/19 07:27:33;;;;;;;136.10;56.90;;;;;;;;;;4419688;32;318720;-81
2024/01/19 07:30:01;;;;;;;91.37;43.90;;;;;;;;;;4396502;32;318614;-80
2024/01/19 07:32:31;;;;;;;117.17;56.83;;;;;;;;;;4405031;32;317883;-83
2024/01/19 07:35:00;;;;;;;123.20;57.23;;;;;;;;;;4393193;32;319211;-82
2024/01/19 07:37:26;;;;;;;158.40;86.73;;;;;;;;;;4420434;32;316598;-81
2024/01/19 07:39:56;;;;;;;135.63;68.63;;;;;;;;;;4405316;32;330631;-82
2024/01/19 07:42:25;;;;;;;90.00;45.40;;;;;;;;;;4428447;32;317383;-80
2024/01/19 07:44:56;;;;;;;92.83;47.10;;;;;;;;;;4407610;32;347913;-81
2024/01/19 07:47:26;;;;;;;119.73;56.60;;;;;;;;;;4415439;32;316929;-81
2024/01/19 07:49:56;;;;;;;118.27;64.13;;;;;;;;;;4408635;32;319107;-78
2024/01/19 07:52:29;;;;;;;125.37;67.87;;;;;;;;;;4399791;32;320236;-81
2024/01/19 07:54:56;;;;;;;145.93;71.93;;;;;;;;;;4390168;32;320457;-79
2024/01/19 07:57:22;;;;;;;136.27;73.53;;;;;;;;;;4409242;32;320338;-79
2024/01/19 07:59:50;;;;;;;159.50;80.87;;;;;;;;;;4389687;32;320503;-79
2024/01/19 08:02:18;;;;;;;127.73;64.03;;;;;;;;;;4411222;32;319943;-81
2024/01/19 08:04:47;;;;;;;94.97;48.90;;;;;;;;;;4397442;32;346349;-81
2024/01/19 08:07:15;;;;;;;109.50;53.53;;;;;;;;;;4405844;32;319033;-80
2024/01/19 08:09:58;;;;;;;94.97;51.63;;;;;;;;;;4399623;32;320071;-80
2024/01/19 08:12:26;;;;;;;86.13;42.47;;;;;;;;;;4411010;32;319053;-81
2024/01/19 08:14:57;;;;;;;68.53;36.33;;;;;;;;;;4384075;32;319017;-78
2024/01/19 08:17:25;;;;;;;67.30;33.60;;;;;;;;;;4400341;32;334236;-80
2024/01/19 08:19:52;;;;;;;62.17;33.23;;;;;;;;;;4367268;32;318655;-81
2024/01/19 08:22:20;;;;;;;60.23;34.33;;;;;;;;;;4387537;32;320273;-81
2024/01/19 08:24:50;;;;;;;44.43;27.87;;;;;;;;;;4384887;32;322196;-78
2024/01/19 08:27:22;;;;;;;51.30;26.77;;;;;;;;;;4407257;32;318622;-81
2024/01/19 08:29:52;;;;;;;45.67;26.63;;;;;;;;;;4391093;32;319250;-79
2024/01/19 08:32:18;;;;;;;43.77;25.10;;;;;;;;;;4410290;32;319301;-79
2024/01/19 08:34:48;;;;;;;40.77;26.27;;;;;;;;;;4400139;32;324447;-81
2024/01/19 08:37:19;;;;;;;47.10;27.03;;;;;;;;;;4401622;32;319169;-80
2024/01/19 08:39:50;;;;;;;44.83;27.20;;;;;;;;;;4340600;32;319138;-80
2024/01/19 08:42:18;;;;;;;48.43;29.47;;;;;;;;;;4363256;32;332685;-80
2024/01/19 08:44:46;;;;;;;53.57;30.93;;;;;;;;;;4350301;32;323268;-81
2024/01/19 08:47:16;;;;;;;49.07;33.67;;;;;;;;;;4359392;32;347059;-80
2024/01/19 08:49:43;;;;;;;49.00;31.00;;;;;;;;;;4336502;32;319134;-81
2024/01/19 08:52:12;;;;;;;50.13;31.87;;;;;;;;;;4347123;32;319180;-81
2024/01/19 08:54:39;;;;;;;73.60;40.87;;;;;;;;;;4355610;32;319414;-80
2024/01/19 08:57:07;;;;;;;76.57;44.97;;;;;;;;;;4343414;32;420836;-79
2024/01/19 08:59:36;;;;;;;94.93;53.40;;;;;;;;;;4362690;32;318502;-79
2024/01/19 09:02:13;;;;;;;93.87;56.53;;;;;;;;;;4344641;32;319097;-80
2024/01/19 09:04:40;;;;;;;112.27;61.90;;;;;;;;;;4361546;32;319033;-81
2024/01/19 09:09:51;;;;;;;102.67;60.77;;;;;;;;;;4329093;32;319579;-80
2024/01/19 09:12:19;;;;;;;112.93;62.00;;;;;;;;;;4339282;32;320030;-80
2024/01/19 09:14:48;;;;;;;118.10;66.90;;;;;;;;;;4336979;32;320304;-80
2024/01/19 09:17:16;;;;;;;119.60;69.53;;;;;;;;;;4349508;32;320351;-80
2024/01/19 09:19:47;;;;;;;128.40;72.53;;;;;;;;;;4334617;32;372082;-80
2024/01/19 09:22:16;;;;;;;118.83;65.33;;;;;;;;;;4398461;32;320203;-80
2024/01/19 09:24:43;;;;;;;150.27;74.53;;;;;;;;;;4402161;32;320258;-81
2024/01/19 09:27:13;;;;;;;148.23;75.13;;;;;;;;;;4413744;32;320103;-82
2024/01/19 09:29:41;;;;;;;170.67;84.27;;;;;;;;;;4413538;32;342656;-82
2024/01/19 09:32:12;;;;;;;178.77;89.20;;;;;;;;;;4391456;32;421035;-81
2024/01/19 09:34:42;;;;;;;163.00;84.90;;;;;;;;;;4380841;32;320176;-81
2024/01/19 09:37:10;;;;;;;164.00;85.93;;;;;;;;;;4406259;32;319699;-81
2024/01/19 09:39:39;;;;;;;151.00;79.57;;;;;;;;;;4395732;32;320569;-81
2024/01/19 09:42:15;;;;;;;134.00;75.50;;;;;;;;;;4408289;32;320167;-81
2024/01/19 09:44:51;;;;;;;158.60;78.73;;;;;;;;;;4389306;32;320253;-81
2024/01/19 09:47:22;;;;;;;157.53;80.83;;;;;;;;;;4411679;32;319781;-81
2024/01/19 09:50:04;;;;;;;160.80;82.47;;;;;;;;;;4383815;32;419612;-80
2024/01/19 09:52:52;;;;;;;141.47;73.13;;;;;;;;;;4402553;32;320587;-81
2024/01/19 09:55:21;;;;;;;151.20;77.10;;;;;;;;;;4382687;32;318836;-79
2024/01/19 09:57:49;;;;;;;139.80;75.07;;;;;;;;;;4392604;32;420752;-79
2024/01/19 10:00:19;;;;;;;127.83;69.83;;;;;;;;;;4408025;32;320355;-80
2024/01/19 10:02:53;;;;;;;129.90;69.37;;;;;;;;;;4385558;32;419762;-80
2024/01/19 10:05:21;;;;;;;129.03;72.30;;;;;;;;;;4410911;32;319407;-82
2024/01/19 10:07:49;;;;;;;130.00;68.10;;;;;;;;;;4379288;32;420620;-81
2024/01/19 10:10:16;;;;;;;123.03;65.80;;;;;;;;;;4393393;32;320226;-81
2024/01/19 10:12:44;;;;;;;126.87;68.20;;;;;;;;;;4387737;32;320213;-80
2024/01/19 10:15:14;;;;;;;122.67;70.33;;;;;;;;;;4406588;32;319545;-81
2024/01/19 10:17:42;;;;;;;109.50;65.63;;;;;;;;;;4395422;32;320214;-80
2024/01/19 10:20:14;;;;;;;114.27;65.23;;;;;;;;;;4414579;32;320056;-80
2024/01/19 10:22:41;;;;;;;114.67;64.23;;;;;;;;;;4404130;32;320282;-80
2024/01/19 10:25:11;;;;;;;118.23;69.03;;;;;;;;;;4411298;32;320165;-79
2024/01/19 10:27:47;;;;;;;125.57;68.93;;;;;;;;;;4397343;32;320419;-79
2024/01/19 10:30:16;;;;;;;116.77;68.37;;;;;;;;;;4407849;32;320090;-79
2024/01/19 10:32:46;;;;;;;107.63;62.63;;;;;;;;;;4404551;32;319669;-80
2024/01/19 10:35:16;;;;;;;104.73;61.93;;;;;;;;;;4414038;32;321024;-80
2024/01/19 10:37:46;;;;;;;116.13;66.93;;;;;;;;;;4397680;32;320075;-82
2024/01/19 10:40:17;;;;;;;112.33;67.27;;;;;;;;;;4409973;32;320244;-81
2024/01/19 10:42:46;;;;;;;104.77;56.70;;;;;;;;;;4397508;32;320138;-80
2024/01/19 10:45:18;;;;;;;91.30;57.83;;;;;;;;;;4403637;32;320278;-79
2024/01/19 10:47:47;;;;;;;105.83;64.43;;;;;;;;;;4386524;32;418661;-80
2024/01/19 10:50:16;;;;;;;111.23;67.07;;;;;;;;;;4388927;32;320596;-81
2024/01/19 10:52:45;;;;;;;110.87;64.00;;;;;;;;;;4402392;32;319574;-80
2024/01/19 10:55:18;;;;;;;87.33;55.17;;;;;;;;;;4364909;32;319536;-81
2024/01/19 10:57:49;;;;;;;96.33;60.17;;;;;;;;;;4381144;32;318567;-80
2024/01/19 11:00:22;;;;;;;112.40;63.67;;;;;;;;;;4374133;32;318714;-80
2024/01/19 11:02:52;;;;;;;106.50;63.47;;;;;;;;;;4396616;32;318681;-82
2024/01/19 11:05:23;;;;;;;99.83;56.23;;;;;;;;;;4397973;32;319732;-80
2024/01/19 11:07:52;;;;;;;100.73;56.17;;;;;;;;;;4404598;32;319010;-81
2024/01/19 11:10:21;;;;;;;87.73;48.57;;;;;;;;;;4355076;32;319217;-81
2024/01/19 11:12:54;;;;;;;74.90;42.20;;;;;;;;;;4379253;32;318607;-80
2024/01/19 11:15:42;;;;;;;82.93;41.33;;;;;;;;;;4371183;32;318514;-81
2024/01/19 11:18:08;;;;;;;57.47;36.53;;;;;;;;;;4382898;32;322525;-81
2024/01/19 11:20:38;;;;;;;55.37;33.37;;;;;;;;;;4392784;32;318817;-78
2024/01/19 11:23:06;;;;;;;49.90;31.13;;;;;;;;;;4375925;32;318671;-81
2024/01/19 11:25:47;;;;;;;49.90;29.53;;;;;;;;;;4386011;32;318578;-81
2024/01/19 11:28:20;;;;;;;47.03;27.27;;;;;;;;;;4358813;32;318427;-79
2024/01/19 11:31:02;;;;;;;52.43;28.63;;;;;;;;;;4414179;32;317332;-80
2024/01/19 11:33:32;;;;;;;40.90;25.07;;;;;;;;;;4392110;32;421288;-80
2024/01/19 11:36:00;;;;;;;41.33;22.60;;;;;;;;;;4401981;32;317285;-80
2024/01/19 11:38:44;;;;;;;38.30;23.10;;;;;;;;;;4410053;32;317289;-80
2024/01/19 11:41:44;;;;;;;36.67;23.97;;;;;;;;;;4409985;32;319178;-80
2024/01/19 11:44:49;;;;;;;28.23;18.53;;;;;;;;;;4354047;32;318650;-80
2024/01/19 11:47:42;;;;;;;41.60;21.10;;;;;;;;;;4389128;32;318205;-81
2024/01/19 11:50:11;;;;;;;44.27;22.77;;;;;;;;;;4406509;32;318652;-80
2024/01/19 11:52:45;;;;;;;40.50;21.23;;;;;;;;;;4416186;32;349452;-79
2024/01/19 11:55:52;;;;;;;52.50;27.80;;;;;;;;;;4409561;32;318546;-79
2024/01/19 11:58:43;;;;;;;48.67;31.03;;;;;;;;;;4395427;32;318427;-79
2024/01/19 12:01:10;;;;;;;42.83;27.33;;;;;;;;;;4330454;32;318330;-79
2024/01/19 12:03:39;;;;;;;44.43;27.10;;;;;;;;;;4403646;32;318115;-79
2024/01/19 12:06:09;;;;;;;53.80;30.53;;;;;;;;;;4395377;32;317216;-79
2024/01/19 12:08:37;;;;;;;54.10;31.77;;;;;;;;;;4406593;32;339053;-81
2024/01/19 12:11:05;;;;;;;50.23;30.43;;;;;;;;;;4403616;32;318521;-80
2024/01/19 12:13:33;;;;;;;45.00;29.87;;;;;;;;;;4407897;32;318649;-81
2024/01/19 12:16:00;;;;;;;40.60;25.97;;;;;;;;;;4416730;32;318427;-81
2024/01/19 12:18:30;;;;;;;43.40;25.07;;;;;;;;;;4419434;32;318563;-81
2024/01/19 12:20:57;;;;;;;31.83;20.97;;;;;;;;;;4411227;32;318588;-81
2024/01/19 12:23:25;;;;;;;27.30;17.10;;;;;;;;;;4399849;32;418613;-80
2024/01/19 12:25:58;;;;;;;28.73;17.90;;;;;;;;;;4396340;32;318677;-81
2024/01/19 12:28:27;;;;;;;36.30;19.37;;;;;;;;;;4364761;32;418297;-81
2024/01/19 12:30:56;;;;;;;27.43;12.77;;;;;;;;;;4408294;32;317564;-81
2024/01/19 12:33:28;;;;;;;24.47;12.03;;;;;;;;;;4392060;32;318825;-81
2024/01/19 12:36:11;;;;;;;20.57;7.43;;;;;;;;;;4406110;32;317399;-82
2024/01/19 12:38:40;;;;;;;19.53;8.10;;;;;;;;;;4387652;32;417631;-81
2024/01/19 12:41:14;;;;;;;15.53;5.57;;;;;;;;;;4399764;32;317724;-81
2024/01/19 12:43:41;;;;;;;16.47;5.80;;;;;;;;;;4399544;32;317968;-81
2024/01/19 12:46:12;;;;;;;14.43;5.33;;;;;;;;;;4391535;32;316687;-81
2024/01/19 12:48:40;;;;;;;14.27;5.83;;;;;;;;;;4409438;32;317703;-82
2024/01/19 12:51:10;;;;;;;18.03;4.93;;;;;;;;;;4394405;32;317568;-82
2024/01/19 12:53:40;;;;;;;17.27;8.47;;;;;;;;;;4393829;32;316685;-81
2024/01/19 12:56:28;;;;;;;48.20;22.93;;;;;;;;;;4395766;32;318347;-80
2024/01/19 12:59:14;;;;;;;90.80;53.57;;;;;;;;;;4409218;32;318610;-81
2024/01/19 13:01:43;;;;;;;69.93;38.23;;;;;;;;;;4391817;32;422340;-81
2024/01/19 13:04:11;;;;;;;46.57;23.50;;;;;;;;;;4392813;32;317520;-81
2024/01/19 13:06:41;;;;;;;29.03;13.67;;;;;;;;;;4403726;32;319186;-81
2024/01/19 13:09:09;;;;;;;92.80;55.20;;;;;;;;;;4384289;32;318922;-81
2024/01/19 13:11:39;;;;;;;23.33;11.60;;;;;;;;;;4395598;32;319117;-81
2024/01/19 13:14:08;;;;;;;26.03;10.73;;;;;;;;;;4384791;32;319044;-82
2024/01/19 13:16:51;;;;;;;20.30;12.07;;;;;;;;;;4392712;32;318505;-81
2024/01/19 13:19:21;;;;;;;20.13;11.63;;;;;;;;;;4386164;32;319326;-80
2024/01/19 13:21:48;;;;;;;22.17;8.10;;;;;;;;;;4395230;32;318717;-81
2024/01/19 13:24:16;;;;;;;12.97;6.77;;;;;;;;;;4375693;32;318026;-82
2024/01/19 13:26:45;;;;;;;26.40;13.23;;;;;;;;;;4394900;32;317386;-81
2024/01/19 13:29:13;;;;;;;28.43;14.40;;;;;;;;;;4397338;32;319014;-81
2024/01/19 13:31:40;;;;;;;25.87;14.67;;;;;;;;;;4410284;32;319125;-81
2024/01/19 13:34:11;;;;;;;19.03;10.47;;;;;;;;;;4397508;32;319063;-82
2024/01/19 13:36:41;;;;;;;20.83;11.93;;;;;;;;;;4408240;32;319018;-81
2024/01/19 13:39:11;;;;;;;40.60;19.67;;;;;;;;;;4392427;32;319406;-81
2024/01/19 13:41:38;;;;;;;26.87;13.70;;;;;;;;;;4408903;32;318671;-83
2024/01/19 13:44:07;;;;;;;17.07;8.60;;;;;;;;;;4399539;32;319358;-82
2024/01/19 13:46:35;;;;;;;17.03;9.07;;;;;;;;;;4407171;32;318375;-81
2024/01/19 13:49:04;;;;;;;32.40;15.17;;;;;;;;;;4391383;32;318206;-82
2024/01/19 13:51:32;;;;;;;34.97;20.03;;;;;;;;;;4407159;32;317589;-80
2024/01/19 13:54:04;;;;;;;44.37;22.70;;;;;;;;;;4407721;32;319744;-82
2024/01/19 13:56:32;;;;;;;36.73;20.67;;;;;;;;;;4389530;32;418537;-81
2024/01/19 13:59:01;;;;;;;37.53;21.27;;;;;;;;;;4410579;32;317423;-81
2024/01/19 14:01:34;;;;;;;32.57;19.67;;;;;;;;;;4387919;32;419843;-81
2024/01/19 14:04:05;;;;;;;36.53;20.47;;;;;;;;;;4391645;32;319646;-81
2024/01/19 14:06:35;;;;;;;39.93;22.47;;;;;;;;;;4401084;32;318524;-82
2024/01/19 14:09:02;;;;;;;46.87;24.03;;;;;;;;;;4385939;32;318716;-81
2024/01/19 14:11:37;;;;;;;34.93;21.13;;;;;;;;;;4398733;32;319325;-80
2024/01/19 14:14:04;;;;;;;32.10;18.33;;;;;;;;;;4399797;32;391425;-80
2024/01/19 14:16:39;;;;;;;41.03;18.53;;;;;;;;;;4406364;32;318331;-82
2024/01/19 14:19:08;;;;;;;39.67;18.57;;;;;;;;;;4398998;32;343991;-80
2024/01/19 14:21:53;;;;;;;34.73;19.30;;;;;;;;;;4373094;32;318595;-80
2024/01/19 14:24:22;;;;;;;37.97;17.80;;;;;;;;;;4387413;32;319086;-79
2024/01/19 14:26:52;;;;;;;29.57;17.50;;;;;;;;;;4400435;32;318955;-80
2024/01/19 14:29:28;;;;;;;52.93;25.20;;;;;;;;;;4392437;32;318366;-82